createdAt,value
2018-01-15T00:02:23.727Z,54.20
2018-01-15T00:04:51.300Z,54.20
2018-01-15T00:07:18.830Z,54.40
2018-01-15T00:09:46.353Z,54.70
2018-01-15T00:12:13.915Z,54.50
2018-01-15T00:14:41.487Z,54.50
2018-01-15T00:17:09.001Z,54.40
2018-01-15T00:19:36.515Z,54.10
2018-01-15T00:22:04.059Z,54.30
2018-01-15T00:24:31.571Z,54.40
2018-01-15T00:26:59.123Z,54.40
2018-01-15T00:29:26.634Z,54.20
2018-01-15T00:31:54.179Z,54.10
2018-01-15T00:34:21.711Z,54.20
2018-01-15T00:36:49.231Z,54.10
2018-01-15T00:39:16.849Z,54.20
2018-01-15T00:41:44.434Z,54.00
2018-01-15T00:44:11.972Z,53.80
2018-01-15T00:46:39.530Z,53.70
2018-01-15T00:49:07.051Z,53.70
2018-01-15T00:51:34.638Z,53.40
2018-01-15T00:54:02.159Z,53.40
2018-01-15T00:56:29.704Z,53.20
2018-01-15T00:58:57.210Z,53.20
2018-01-15T01:01:24.754Z,53.40
2018-01-15T01:03:52.268Z,53.50
2018-01-15T01:06:19.804Z,53.80
2018-01-15T01:08:47.342Z,53.80
2018-01-15T01:11:14.892Z,54.00
2018-01-15T01:13:42.448Z,54.20
2018-01-15T01:16:09.963Z,54.30
2018-01-15T01:18:37.462Z,54.10
2018-01-15T01:21:05.771Z,54.00
2018-01-15T01:23:33.277Z,53.90
2018-01-15T01:26:00.816Z,53.90
2018-01-15T01:28:28.381Z,54.00
2018-01-15T01:30:55.891Z,54.00
2018-01-15T01:33:23.441Z,54.20
2018-01-15T01:35:51.724Z,54.10
2018-01-15T01:38:19.279Z,54.10
2018-01-15T01:40:46.828Z,54.30
2018-01-15T01:43:14.336Z,54.30
2018-01-15T01:45:41.871Z,54.00
2018-01-15T01:48:09.382Z,53.60
2018-01-15T01:50:36.943Z,53.60
2018-01-15T01:53:04.455Z,53.60
2018-01-15T01:55:32.008Z,53.90
2018-01-15T01:57:59.523Z,54.00
2018-01-15T02:00:27.063Z,54.20
2018-01-15T02:02:54.575Z,54.20
2018-01-15T02:05:22.125Z,54.00
2018-01-15T02:07:49.677Z,54.20
2018-01-15T02:10:17.970Z,53.80
2018-01-15T02:12:46.252Z,53.80
2018-01-15T02:15:13.795Z,53.80
2018-01-15T02:17:41.352Z,53.70
2018-01-15T02:20:09.657Z,53.80
2018-01-15T02:22:37.176Z,53.20
2018-01-15T02:25:04.730Z,53.10
2018-01-15T02:27:32.255Z,53.00
2018-01-15T02:29:59.800Z,52.80
2018-01-15T02:32:27.351Z,52.80
2018-01-15T02:34:54.865Z,52.80
2018-01-15T02:37:22.391Z,53.10
2018-01-15T02:39:50.012Z,53.30
2018-01-15T02:42:18.328Z,53.60
2018-01-15T02:44:45.892Z,53.50
2018-01-15T02:47:13.414Z,53.40
2018-01-15T02:49:40.951Z,53.20
2018-01-15T02:52:08.463Z,53.00
2018-01-15T02:54:36.020Z,53.20
2018-01-15T02:57:03.548Z,53.40
2018-01-15T02:59:31.103Z,53.40
2018-01-15T03:01:58.621Z,53.40
2018-01-15T03:04:26.166Z,53.60
2018-01-15T03:06:53.719Z,53.60
2018-01-15T03:09:21.249Z,53.60
2018-01-15T03:11:48.795Z,53.40
2018-01-15T03:14:17.104Z,53.50
2018-01-15T03:16:44.953Z,53.40
2018-01-15T03:19:12.516Z,52.90
2018-01-15T03:21:40.070Z,52.60
2018-01-15T03:24:07.639Z,52.70
2018-01-15T03:26:35.159Z,52.90
2018-01-15T03:31:44.576Z,53.20
2018-01-15T03:34:12.117Z,53.50
2018-01-15T03:36:39.632Z,53.50
2018-01-15T03:39:07.183Z,53.20
2018-01-15T03:41:34.741Z,53.20
2018-01-15T03:44:02.296Z,53.00
2018-01-15T03:46:29.859Z,53.10
2018-01-15T03:48:57.393Z,52.90
2018-01-15T03:51:24.944Z,53.10
2018-01-15T03:53:52.493Z,53.60
2018-01-15T03:56:20.013Z,52.80
2018-01-15T03:58:47.526Z,52.60
2018-01-15T04:01:15.060Z,52.80
2018-01-15T04:03:42.579Z,52.70
2018-01-15T04:06:10.134Z,53.00
2018-01-15T04:08:37.653Z,53.00
2018-01-15T04:11:05.196Z,53.20
2018-01-15T04:13:32.724Z,53.00
2018-01-15T04:16:00.290Z,53.90
2018-01-15T04:18:27.816Z,54.10
2018-01-15T04:20:55.340Z,53.90
2018-01-15T04:23:22.889Z,53.70
2018-01-15T04:25:50.408Z,53.60
2018-01-15T04:28:17.966Z,53.00
2018-01-15T04:30:45.484Z,52.60
2018-01-15T04:33:13.025Z,52.60
2018-01-15T04:35:40.539Z,52.80
2018-01-15T04:38:08.089Z,52.60
2018-01-15T04:40:35.635Z,52.80
2018-01-15T04:43:03.138Z,53.10
2018-01-15T04:45:31.443Z,53.30
2018-01-15T04:47:58.960Z,53.20
2018-01-15T04:50:26.528Z,53.20
2018-01-15T04:52:54.058Z,53.40
2018-01-15T04:55:21.579Z,53.40
2018-01-15T04:57:49.137Z,53.40
2018-01-15T05:00:16.709Z,53.40
2018-01-15T05:02:44.251Z,53.40
2018-01-15T05:05:11.879Z,53.00
2018-01-15T05:07:39.398Z,53.00
2018-01-15T05:10:06.941Z,53.00
2018-01-15T05:12:34.483Z,53.10
2018-01-15T05:15:02.799Z,53.40
2018-01-15T05:17:30.567Z,53.40
2018-01-15T05:19:58.088Z,53.40
2018-01-15T05:22:26.391Z,53.60
2018-01-15T05:24:53.922Z,53.60
2018-01-15T05:27:22.287Z,53.30
2018-01-15T05:29:50.603Z,53.20
2018-01-15T05:32:18.146Z,53.10
2018-01-15T05:34:45.691Z,53.40
2018-01-15T05:37:13.248Z,53.20
2018-01-15T05:39:40.762Z,53.40
2018-01-15T05:42:08.322Z,53.60
2018-01-15T05:44:35.823Z,53.20
2018-01-15T05:47:03.343Z,53.30
2018-01-15T05:49:30.896Z,53.00
2018-01-15T05:51:58.402Z,53.20
2018-01-15T05:54:26.731Z,53.00
2018-01-15T05:56:54.250Z,53.00
2018-01-15T05:59:21.836Z,53.20
2018-01-15T06:01:49.350Z,53.30
2018-01-15T06:04:16.862Z,53.30
2018-01-15T06:06:44.412Z,53.60
2018-01-15T06:09:11.927Z,53.60
2018-01-15T06:11:39.590Z,53.60
2018-01-15T06:14:07.868Z,53.70
2018-01-15T06:16:35.471Z,53.60
2018-01-15T06:19:03.024Z,54.30
2018-01-15T06:21:30.532Z,54.00
2018-01-15T06:23:58.067Z,53.60
2018-01-15T06:26:25.603Z,53.60
2018-01-15T06:28:53.157Z,53.90
2018-01-15T06:31:20.679Z,53.90
2018-01-15T06:33:48.228Z,53.70
2018-01-15T06:36:15.749Z,54.00
2018-01-15T06:38:43.294Z,54.20
2018-01-15T06:41:10.844Z,54.10
2018-01-15T06:43:38.399Z,54.10
2018-01-15T06:46:05.994Z,54.20
2018-01-15T06:48:33.516Z,54.30
2018-01-15T06:51:01.061Z,54.10
2018-01-15T06:53:29.343Z,54.10
2018-01-15T06:55:56.895Z,54.00
2018-01-15T06:58:25.224Z,54.20
2018-01-15T07:00:52.792Z,54.20
2018-01-15T07:03:20.307Z,54.00
2018-01-15T07:05:48.631Z,54.20
2018-01-15T07:08:16.202Z,54.20
2018-01-15T07:10:43.740Z,54.40
2018-01-15T07:13:11.292Z,54.40
2018-01-15T07:15:38.866Z,54.20
2018-01-15T07:18:06.408Z,54.40
2018-01-15T07:20:33.932Z,54.10
2018-01-15T07:23:02.227Z,54.30
2018-01-15T07:25:29.817Z,54.20
2018-01-15T07:27:58.347Z,54.30
2018-01-15T07:30:26.307Z,54.40
2018-01-15T07:32:53.827Z,54.50
2018-01-15T07:35:21.388Z,54.60
2018-01-15T07:37:48.950Z,54.60
2018-01-15T07:40:16.473Z,54.70
2018-01-15T07:42:44.101Z,54.60
2018-01-15T07:45:11.686Z,54.60
2018-01-15T07:47:39.973Z,54.20
2018-01-15T07:50:07.519Z,54.20
2018-01-15T07:52:35.218Z,53.90
2018-01-15T07:55:02.887Z,53.80
2018-01-15T07:57:30.452Z,54.00
2018-01-15T07:59:58.024Z,54.10
2018-01-15T08:02:25.538Z,54.40
2018-01-15T08:04:53.192Z,54.40
2018-01-15T08:07:20.727Z,54.20
2018-01-15T08:09:48.298Z,54.20
2018-01-15T08:12:16.719Z,54.60
2018-01-15T08:14:44.328Z,54.50
2018-01-15T08:17:11.888Z,54.60
2018-01-15T08:19:39.514Z,54.70
2018-01-15T08:22:07.038Z,54.70
2018-01-15T08:24:34.599Z,54.70
2018-01-15T08:27:02.143Z,54.60
2018-01-15T08:29:29.716Z,54.50
2018-01-15T08:31:57.284Z,54.20
2018-01-15T08:34:24.861Z,54.20
2018-01-15T08:36:52.389Z,54.50
2018-01-15T08:39:19.935Z,54.70
2018-01-15T08:41:48.280Z,54.50
2018-01-15T08:44:16.004Z,54.40
2018-01-15T08:46:43.619Z,54.50
2018-01-15T08:49:11.148Z,55.30
2018-01-15T08:51:39.094Z,54.70
2018-01-15T08:54:06.833Z,54.50
2018-01-15T08:56:35.172Z,54.20
2018-01-15T08:59:02.715Z,54.10
2018-01-15T09:01:30.281Z,54.10
2018-01-15T09:03:57.833Z,54.20
2018-01-15T09:06:25.402Z,54.20
2018-01-15T09:08:52.959Z,54.40
2018-01-15T09:11:20.519Z,54.40
2018-01-15T09:13:48.232Z,54.60
2018-01-15T09:16:15.761Z,54.20
2018-01-15T09:18:43.550Z,54.40
2018-01-15T09:21:11.870Z,54.40
2018-01-15T09:23:39.419Z,54.30
2018-01-15T09:26:07.002Z,54.40
2018-01-15T09:28:34.549Z,54.50
2018-01-15T09:31:02.083Z,54.50
2018-01-15T09:33:29.682Z,54.50
2018-01-15T09:35:57.311Z,54.70
2018-01-15T09:38:24.874Z,54.80
2018-01-15T09:40:52.410Z,54.50
2018-01-15T09:43:20.042Z,54.70
2018-01-15T09:45:47.583Z,54.60
2018-01-15T09:48:15.231Z,54.80
2018-01-15T09:50:42.772Z,54.80
2018-01-15T09:53:11.089Z,54.80
2018-01-15T09:55:38.692Z,54.80
2018-01-15T09:58:06.265Z,54.90
2018-01-15T10:00:33.798Z,54.70
2018-01-15T10:03:01.390Z,54.50
2018-01-15T10:05:28.956Z,54.50
2018-01-15T10:07:56.463Z,54.80
2018-01-15T10:10:24.012Z,54.70
2018-01-15T10:12:51.553Z,54.40
2018-01-15T10:15:19.320Z,54.30
2018-01-15T10:17:46.884Z,54.30
2018-01-15T10:20:15.170Z,54.00
2018-01-15T10:22:43.294Z,54.00
2018-01-15T10:25:10.945Z,53.60
2018-01-15T10:27:38.499Z,53.40
2018-01-15T10:30:06.792Z,53.30
2018-01-15T10:32:35.036Z,53.20
2018-01-15T10:35:02.579Z,53.30
2018-01-15T10:37:30.193Z,53.30
2018-01-15T10:39:57.799Z,52.20
2018-01-15T10:42:25.337Z,51.10
2018-01-15T10:44:53.192Z,51.30
2018-01-15T10:47:20.769Z,51.70
2018-01-15T10:49:48.307Z,51.70
2018-01-15T10:52:15.864Z,51.70
2018-01-15T10:54:43.496Z,51.90
2018-01-15T10:57:11.052Z,52.00
2018-01-15T10:59:38.597Z,51.70
2018-01-15T11:02:06.156Z,51.80
2018-01-15T11:04:33.687Z,51.80
2018-01-15T11:07:01.198Z,51.30
2018-01-15T11:09:28.802Z,50.90
2018-01-15T11:11:56.338Z,50.50
2018-01-15T11:14:24.106Z,50.50
2018-01-15T11:16:51.671Z,50.10
2018-01-15T11:19:19.228Z,50.00
2018-01-15T11:21:46.806Z,49.70
2018-01-15T11:24:14.412Z,49.70
2018-01-15T11:26:41.998Z,50.10
2018-01-15T11:29:09.527Z,49.80
2018-01-15T11:31:37.098Z,49.50
2018-01-15T11:34:04.642Z,49.10
2018-01-15T11:36:32.217Z,48.90
2018-01-15T11:39:00.527Z,48.30
2018-01-15T11:41:28.152Z,48.30
2018-01-15T11:43:55.676Z,48.60
2018-01-15T11:46:23.225Z,48.70
2018-01-15T11:48:50.803Z,48.40
2018-01-15T11:51:18.327Z,48.50
2018-01-15T11:53:46.678Z,48.20
2018-01-15T11:56:15.156Z,48.70
2018-01-15T11:58:42.756Z,48.70
2018-01-15T12:01:10.332Z,49.00
2018-01-15T12:03:37.890Z,48.80
2018-01-15T12:06:05.448Z,48.30
2018-01-15T12:08:32.974Z,48.30
2018-01-15T12:11:00.563Z,48.30
2018-01-15T12:13:28.151Z,48.60
2018-01-15T12:15:55.726Z,48.70
2018-01-15T12:18:23.372Z,48.70
2018-01-15T12:20:50.997Z,48.90
2018-01-15T12:23:18.557Z,48.90
2018-01-15T12:25:46.271Z,48.70
2018-01-15T12:28:13.809Z,49.10
2018-01-15T12:30:41.352Z,49.70
2018-01-15T12:33:08.929Z,49.70
2018-01-15T12:35:36.519Z,49.80
2018-01-15T12:38:04.182Z,49.80
2018-01-15T12:40:32.472Z,49.90
2018-01-15T12:43:00.030Z,49.90
2018-01-15T12:45:28.379Z,49.70
2018-01-15T12:47:55.942Z,49.70
2018-01-15T12:50:23.499Z,49.80
2018-01-15T12:52:51.045Z,49.70
2018-01-15T12:55:18.652Z,49.90
2018-01-15T12:57:46.178Z,50.00
2018-01-15T13:00:13.837Z,50.10
2018-01-15T13:02:41.686Z,50.20
2018-01-15T13:05:10.250Z,50.80
2018-01-15T13:07:49.477Z,50.80
2018-01-15T13:10:17.042Z,51.30
2018-01-15T13:12:44.615Z,51.30
2018-01-15T13:15:12.240Z,51.10
2018-01-15T13:17:39.795Z,51.20
2018-01-15T13:20:08.157Z,50.70
2018-01-15T13:22:36.443Z,50.90
2018-01-15T13:25:04.001Z,50.60
2018-01-15T13:27:32.286Z,50.90
2018-01-15T13:29:59.816Z,50.90
2018-01-15T13:32:27.380Z,50.90
2018-01-15T13:34:54.904Z,50.90
2018-01-15T13:37:22.467Z,50.80
2018-01-15T13:39:49.988Z,50.80
2018-01-15T13:42:18.339Z,50.80
2018-01-15T13:44:45.861Z,50.70
2018-01-15T13:47:13.505Z,50.60
2018-01-15T13:49:41.070Z,50.80
2018-01-15T13:52:08.620Z,50.90
2018-01-15T13:54:36.171Z,50.90
2018-01-15T13:57:03.695Z,50.80
2018-01-15T13:59:31.560Z,51.00
2018-01-15T14:01:59.140Z,50.80
2018-01-15T14:04:26.687Z,50.80
2018-01-15T14:06:55.080Z,50.80
2018-01-15T14:09:23.407Z,51.20
2018-01-15T14:11:51.007Z,50.60
2018-01-15T14:14:18.565Z,50.60
2018-01-15T14:16:46.099Z,50.40
2018-01-15T14:19:13.673Z,50.50
2018-01-15T14:21:42.051Z,50.60
2018-01-15T14:24:09.613Z,50.60
2018-01-15T14:26:37.139Z,50.70
2018-01-15T14:29:04.683Z,50.60
2018-01-15T14:31:32.229Z,50.40
2018-01-15T14:33:59.815Z,50.40
2018-01-15T14:36:27.568Z,50.50
2018-01-15T14:38:55.079Z,50.20
2018-01-15T14:41:23.469Z,49.70
2018-01-15T14:43:51.799Z,49.90
2018-01-15T14:46:19.325Z,50.40
2018-01-15T14:48:46.872Z,49.90
2018-01-15T14:51:15.640Z,49.90
2018-01-15T14:53:43.175Z,49.90
2018-01-15T14:56:10.933Z,49.90
2018-01-15T14:58:38.483Z,49.70
2018-01-15T15:01:06.070Z,49.70
2018-01-15T15:03:33.617Z,49.70
2018-01-15T15:06:01.352Z,49.60
2018-01-15T15:08:28.904Z,49.60
2018-01-15T15:10:56.494Z,49.60
2018-01-15T15:13:25.160Z,50.00
2018-01-15T15:15:52.753Z,49.50
2018-01-15T15:18:20.297Z,49.60
2018-01-15T15:20:47.812Z,49.50
2018-01-15T15:23:15.369Z,49.50
2018-01-15T15:25:42.963Z,49.30
2018-01-15T15:28:10.887Z,49.30
2018-01-15T15:30:38.474Z,49.10
2018-01-15T15:33:06.048Z,49.00
2018-01-15T15:35:33.565Z,49.00
2018-01-15T15:38:01.109Z,49.20
2018-01-15T15:40:28.624Z,49.10
2018-01-15T15:42:56.214Z,48.80
2018-01-15T15:45:23.745Z,49.10
2018-01-15T15:47:51.589Z,48.70
2018-01-15T15:50:19.241Z,48.60
2018-01-15T15:52:46.790Z,48.60
2018-01-15T15:55:14.343Z,48.70
2018-01-15T15:57:41.917Z,48.20
2018-01-15T16:00:09.475Z,48.00
2018-01-15T16:02:37.763Z,48.10
2018-01-15T16:05:05.333Z,48.00
2018-01-15T16:07:33.032Z,47.90
2018-01-15T16:10:00.594Z,47.20
2018-01-15T16:12:28.106Z,46.80
2018-01-15T16:14:55.632Z,46.90
2018-01-15T16:17:23.204Z,47.20
2018-01-15T16:19:50.789Z,46.40
2018-01-15T16:22:30.165Z,46.20
2018-01-15T16:24:57.681Z,46.80
2018-01-15T16:27:25.246Z,46.40
2018-01-15T16:29:52.778Z,46.60
2018-01-15T16:32:20.367Z,46.50
2018-01-15T16:34:48.682Z,46.20
2018-01-15T16:37:16.245Z,46.20
2018-01-15T16:39:43.770Z,45.90
2018-01-15T16:42:11.322Z,46.00
2018-01-15T16:44:39.629Z,46.10
2018-01-15T16:47:07.188Z,46.00
2018-01-15T16:49:35.130Z,46.40
2018-01-15T16:52:02.663Z,46.50
2018-01-15T16:54:31.008Z,46.40
2018-01-15T16:56:58.553Z,46.30
2018-01-15T16:59:26.076Z,46.40
2018-01-15T17:01:53.635Z,46.60
2018-01-15T17:04:21.174Z,46.60
2018-01-15T17:06:48.855Z,46.40
2018-01-15T17:09:16.432Z,46.30
2018-01-15T17:11:43.989Z,46.50
2018-01-15T17:14:11.523Z,46.50
2018-01-15T17:16:39.201Z,46.40
2018-01-15T17:19:06.757Z,46.60
2018-01-15T17:21:34.328Z,46.40
2018-01-15T17:24:01.903Z,46.60
2018-01-15T17:26:29.439Z,46.40
2018-01-15T17:28:57.120Z,46.20
2018-01-15T17:31:24.706Z,46.40
2018-01-15T17:33:52.289Z,46.20
2018-01-15T17:36:19.862Z,46.20
2018-01-15T17:38:47.383Z,46.30
2018-01-15T17:41:14.940Z,46.20
2018-01-15T17:43:42.452Z,46.30
2018-01-15T17:46:10.102Z,46.60
2018-01-15T17:48:37.705Z,46.40
2018-01-15T17:51:05.267Z,46.60
2018-01-15T17:53:32.794Z,46.50
2018-01-15T17:56:00.363Z,46.60
2018-01-15T17:58:27.926Z,46.70
2018-01-15T18:00:55.469Z,46.60
2018-01-15T18:03:23.034Z,47.50
2018-01-15T18:05:50.546Z,47.40
2018-01-15T18:08:18.109Z,47.30
2018-01-15T18:10:45.912Z,47.30
2018-01-15T18:13:14.247Z,47.50
2018-01-15T18:15:41.811Z,47.50
2018-01-15T18:18:09.339Z,47.50
2018-01-15T18:20:36.910Z,47.30
2018-01-15T18:23:04.424Z,47.30
2018-01-15T18:25:32.016Z,47.30
2018-01-15T18:27:59.570Z,47.30
2018-01-15T18:30:27.172Z,47.20
2018-01-15T18:32:54.681Z,47.40
2018-01-15T18:35:22.245Z,47.20
2018-01-15T18:37:49.759Z,47.20
2018-01-15T18:40:17.304Z,47.50
2018-01-15T18:42:44.827Z,47.50
2018-01-15T18:45:12.395Z,47.70
2018-01-15T18:47:39.941Z,47.90
2018-01-15T18:50:07.475Z,48.00
2018-01-15T18:52:35.031Z,48.00
2018-01-15T18:55:02.552Z,48.20
2018-01-15T18:57:30.118Z,48.30
2018-01-15T18:59:57.679Z,48.80
2018-01-15T19:02:25.238Z,48.90
2018-01-15T19:04:52.783Z,48.90
2018-01-15T19:07:20.365Z,48.70
2018-01-15T19:09:47.927Z,48.80
2018-01-15T19:12:15.457Z,48.50
2018-01-15T19:14:43.070Z,48.50
2018-01-15T19:17:10.619Z,48.70
2018-01-15T19:19:38.188Z,49.20
2018-01-15T19:22:05.781Z,49.50
2018-01-15T19:24:33.344Z,49.50
2018-01-15T19:27:00.982Z,49.60
2018-01-15T19:29:28.553Z,49.80
2018-01-15T19:31:56.860Z,50.00
2018-01-15T19:34:28.100Z,49.80
2018-01-15T19:36:57.474Z,49.80
2018-01-15T19:39:25.027Z,50.00
2018-01-15T19:41:55.260Z,49.90
2018-01-15T19:44:28.398Z,50.00
2018-01-15T19:47:01.696Z,50.20
2018-01-15T19:49:34.903Z,50.70
2018-01-15T19:52:08.267Z,50.70
2018-01-15T19:54:41.541Z,51.40
2018-01-15T19:57:14.800Z,51.50
2018-01-15T19:59:47.888Z,51.90
2018-01-15T20:02:21.215Z,52.40
2018-01-15T20:04:54.341Z,52.60
2018-01-15T20:07:27.567Z,53.30
2018-01-15T20:10:00.782Z,53.70
2018-01-15T20:12:28.351Z,53.80
2018-01-15T20:14:55.879Z,54.50
2018-01-15T20:17:23.477Z,54.40
2018-01-15T20:19:51.066Z,54.80
2018-01-15T20:22:18.573Z,54.80
2018-01-15T20:24:46.905Z,54.90
2018-01-15T20:27:14.467Z,55.50
2018-01-15T20:29:42.056Z,54.80
2018-01-15T20:32:09.595Z,55.10
2018-01-15T20:34:37.115Z,55.00
2018-01-15T20:37:04.682Z,55.10
2018-01-15T20:39:32.195Z,55.40
2018-01-15T20:41:59.771Z,55.30
2018-01-15T20:44:28.172Z,55.70
2018-01-15T20:46:55.731Z,55.60
2018-01-15T20:49:23.333Z,55.60
2018-01-15T20:51:50.910Z,55.80
2018-01-15T20:54:18.482Z,55.50
2018-01-15T20:56:46.136Z,56.00
2018-01-15T20:59:13.736Z,55.80
2018-01-15T21:01:41.299Z,55.60
2018-01-15T21:04:08.866Z,55.80
2018-01-15T21:06:36.420Z,56.00
2018-01-15T21:09:04.008Z,55.50
2018-01-15T21:11:31.507Z,55.60
2018-01-15T21:13:59.111Z,55.60
2018-01-15T21:16:26.665Z,55.70
2018-01-15T21:18:54.199Z,55.40
2018-01-15T21:21:21.753Z,55.30
2018-01-15T21:23:49.467Z,55.50
2018-01-15T21:26:17.036Z,55.40
2018-01-15T21:28:44.632Z,55.90
2018-01-15T21:31:12.196Z,55.80
2018-01-15T21:33:39.773Z,56.20
2018-01-15T21:36:07.336Z,56.40
2018-01-15T21:38:34.882Z,56.50
2018-01-15T21:41:02.438Z,56.80
2018-01-15T21:43:30.718Z,57.30
2018-01-15T21:45:58.236Z,57.20
2018-01-15T21:48:25.775Z,57.40
2018-01-15T21:50:53.365Z,58.30
2018-01-15T21:53:20.942Z,58.60
2018-01-15T21:55:49.250Z,59.90
2018-01-15T21:58:16.772Z,59.30
2018-01-15T22:00:44.327Z,59.70
2018-01-15T22:03:11.884Z,60.30
2018-01-15T22:05:39.432Z,60.40
2018-01-15T22:08:06.963Z,60.20
2018-01-15T22:10:34.523Z,59.90
2018-01-15T22:13:02.842Z,59.70
2018-01-15T22:15:30.474Z,59.70
2018-01-15T22:17:58.050Z,60.40
2018-01-15T22:20:25.636Z,59.90
2018-01-15T22:22:53.176Z,60.20
2018-01-15T22:25:20.686Z,59.60
2018-01-15T22:27:48.231Z,59.60
2018-01-15T22:30:15.773Z,59.90
2018-01-15T22:32:43.295Z,60.10
2018-01-15T22:35:10.848Z,59.70
2018-01-15T22:37:38.359Z,59.40
2018-01-15T22:40:05.878Z,59.20
2018-01-15T22:42:33.471Z,59.30
2018-01-15T22:45:01.744Z,58.60
2018-01-15T22:47:29.289Z,58.50
2018-01-15T22:49:56.816Z,58.50
2018-01-15T22:52:24.387Z,58.10
2018-01-15T22:54:51.937Z,58.60
2018-01-15T22:57:19.507Z,58.80
2018-01-15T22:59:47.056Z,58.50
2018-01-15T23:02:14.566Z,58.20
2018-01-15T23:04:42.188Z,58.70
2018-01-15T23:07:09.731Z,58.70
2018-01-15T23:09:37.245Z,58.30
2018-01-15T23:12:04.783Z,58.60
2018-01-15T23:14:32.316Z,58.70
2018-01-15T23:16:59.867Z,58.30
2018-01-15T23:19:27.391Z,58.00
2018-01-15T23:21:54.958Z,57.70
2018-01-15T23:24:22.503Z,58.30
2018-01-15T23:26:50.074Z,58.60
2018-01-15T23:29:17.600Z,59.70
2018-01-15T23:31:45.134Z,60.10
2018-01-15T23:34:12.877Z,60.60
2018-01-15T23:36:40.406Z,60.10
2018-01-15T23:39:07.985Z,60.40
2018-01-15T23:41:35.513Z,60.50
2018-01-15T23:44:03.035Z,60.60
2018-01-15T23:46:30.595Z,60.90
2018-01-15T23:48:58.116Z,61.10
2018-01-15T23:51:25.667Z,61.50
2018-01-15T23:53:53.953Z,62.10
2018-01-15T23:56:21.487Z,62.10
2018-01-15T23:58:50.213Z,62.50
